sensor_id;sensor_type;location;lat;lon;timestamp;P1;durP1;ratioP1;P2;durP2;ratioP2
55076;SDS011;40971;44.702;11.030;2023-02-12T00:02:07;4.18;;;3.05;;
55076;SDS011;40971;44.702;11.030;2023-02-12T00:12:07;7.27;;;4.57;;
55076;SDS011;40971;44.702;11.030;2023-02-12T00:22:08;3.83;;;3.05;;
55076;SDS011;40971;44.702;11.030;2023-02-12T00:32:08;6.60;;;4.30;;
55076;SDS011;40971;44.702;11.030;2023-02-12T00:42:09;4.30;;;3.22;;
55076;SDS011;40971;44.702;11.030;2023-02-12T00:52:09;4.78;;;3.22;;
55076;SDS011;40971;44.702;11.030;2023-02-12T01:02:10;13.60;;;4.85;;
55076;SDS011;40971;44.702;11.030;2023-02-12T01:12:10;3.08;;;2.55;;
55076;SDS011;40971;44.702;11.030;2023-02-12T01:22:11;5.13;;;3.45;;
55076;SDS011;40971;44.702;11.030;2023-02-12T01:32:11;5.90;;;3.70;;
55076;SDS011;40971;44.702;11.030;2023-02-12T01:42:12;2.53;;;2.33;;
55076;SDS011;40971;44.702;11.030;2023-02-12T02:02:19;10.40;;;4.68;;
55076;SDS011;40971;44.702;11.030;2023-02-12T02:12:20;3.35;;;2.65;;
55076;SDS011;40971;44.702;11.030;2023-02-12T02:23:00;7.00;;;2.75;;
55076;SDS011;40971;44.702;11.030;2023-02-12T02:33:31;4.22;;;3.60;;
55076;SDS011;40971;44.702;11.030;2023-02-12T02:43:43;5.22;;;3.17;;
55076;SDS011;40971;44.702;11.030;2023-02-12T02:54:25;2.92;;;2.38;;
55076;SDS011;40971;44.702;11.030;2023-02-12T03:04:21;6.50;;;3.03;;
55076;SDS011;40971;44.702;11.030;2023-02-12T03:14:30;3.67;;;2.97;;
55076;SDS011;40971;44.702;11.030;2023-02-12T03:34:52;3.42;;;2.47;;
55076;SDS011;40971;44.702;11.030;2023-02-12T03:55:30;5.90;;;3.13;;
55076;SDS011;40971;44.702;11.030;2023-02-12T04:05:33;3.42;;;2.63;;
55076;SDS011;40971;44.702;11.030;2023-02-12T04:15:51;6.18;;;2.17;;
55076;SDS011;40971;44.702;11.030;2023-02-12T04:36:25;5.53;;;3.15;;
55076;SDS011;40971;44.702;11.030;2023-02-12T04:46:32;2.85;;;2.00;;
55076;SDS011;40971;44.702;11.030;2023-02-12T04:56:33;4.05;;;2.33;;
55076;SDS011;40971;44.702;11.030;2023-02-12T05:06:34;5.97;;;3.00;;
55076;SDS011;40971;44.702;11.030;2023-02-12T05:16:35;3.05;;;2.35;;
55076;SDS011;40971;44.702;11.030;2023-02-12T05:26:35;2.58;;;1.98;;
55076;SDS011;40971;44.702;11.030;2023-02-12T05:36:36;4.67;;;3.23;;
55076;SDS011;40971;44.702;11.030;2023-02-12T05:46:37;5.17;;;2.13;;
55076;SDS011;40971;44.702;11.030;2023-02-12T05:56:45;3.03;;;2.73;;
55076;SDS011;40971;44.702;11.030;2023-02-12T06:06:46;3.42;;;2.78;;
55076;SDS011;40971;44.702;11.030;2023-02-12T06:16:47;1.50;;;1.15;;
55076;SDS011;40971;44.702;11.030;2023-02-12T06:26:49;0.80;;;0.73;;
55076;SDS011;40971;44.702;11.030;2023-02-12T06:36:51;1.73;;;1.45;;
55076;SDS011;40971;44.702;11.030;2023-02-12T06:46:51;1.52;;;1.42;;
55076;SDS011;40971;44.702;11.030;2023-02-12T06:56:52;5.93;;;2.87;;
55076;SDS011;40971;44.702;11.030;2023-02-12T07:06:53;2.40;;;1.73;;
55076;SDS011;40971;44.702;11.030;2023-02-12T07:16:54;5.13;;;2.33;;
55076;SDS011;40971;44.702;11.030;2023-02-12T07:26:54;2.10;;;1.67;;
55076;SDS011;40971;44.702;11.030;2023-02-12T07:36:55;2.55;;;1.48;;
55076;SDS011;40971;44.702;11.030;2023-02-12T07:46:55;3.70;;;2.17;;
55076;SDS011;40971;44.702;11.030;2023-02-12T07:56:56;5.63;;;2.65;;
55076;SDS011;40971;44.702;11.030;2023-02-12T08:06:57;4.05;;;1.90;;
55076;SDS011;40971;44.702;11.030;2023-02-12T08:16:57;5.97;;;1.92;;
55076;SDS011;40971;44.702;11.030;2023-02-12T08:26:58;6.10;;;3.08;;
55076;SDS011;40971;44.702;11.030;2023-02-12T08:36:58;5.67;;;3.00;;
55076;SDS011;40971;44.702;11.030;2023-02-12T08:46:59;6.22;;;3.17;;
55076;SDS011;40971;44.702;11.030;2023-02-12T08:57:00;6.63;;;2.95;;
55076;SDS011;40971;44.702;11.030;2023-02-12T09:07:02;7.13;;;3.03;;
55076;SDS011;40971;44.702;11.030;2023-02-12T09:17:03;4.13;;;2.88;;
55076;SDS011;40971;44.702;11.030;2023-02-12T09:27:03;7.22;;;2.75;;
55076;SDS011;40971;44.702;11.030;2023-02-12T09:37:03;8.05;;;3.05;;
55076;SDS011;40971;44.702;11.030;2023-02-12T09:47:10;7.97;;;4.20;;
55076;SDS011;40971;44.702;11.030;2023-02-12T09:57:21;8.60;;;3.53;;
55076;SDS011;40971;44.702;11.030;2023-02-12T10:17:43;10.60;;;3.92;;
55076;SDS011;40971;44.702;11.030;2023-02-12T10:27:54;13.30;;;5.75;;
55076;SDS011;40971;44.702;11.030;2023-02-12T10:58:18;15.00;;;7.32;;
55076;SDS011;40971;44.702;11.030;2023-02-12T11:08:28;15.75;;;7.45;;
55076;SDS011;40971;44.702;11.030;2023-02-12T11:18:33;17.30;;;7.47;;
55076;SDS011;40971;44.702;11.030;2023-02-12T11:28:35;19.80;;;8.30;;
55076;SDS011;40971;44.702;11.030;2023-02-12T11:38:37;22.35;;;8.93;;
55076;SDS011;40971;44.702;11.030;2023-02-12T11:48:46;18.85;;;9.15;;
55076;SDS011;40971;44.702;11.030;2023-02-12T11:58:48;17.33;;;8.38;;
55076;SDS011;40971;44.702;11.030;2023-02-12T12:08:54;16.40;;;8.35;;
55076;SDS011;40971;44.702;11.030;2023-02-12T12:19:04;16.92;;;9.95;;
55076;SDS011;40971;44.702;11.030;2023-02-12T13:00:56;24.38;;;10.43;;
55076;SDS011;40971;44.702;11.030;2023-02-12T13:31:17;27.45;;;13.32;;
55076;SDS011;40971;44.702;11.030;2023-02-12T13:41:20;34.00;;;15.82;;
55076;SDS011;40971;44.702;11.030;2023-02-12T14:01:43;29.98;;;14.38;;
55076;SDS011;40971;44.702;11.030;2023-02-12T14:11:49;33.53;;;16.48;;
55076;SDS011;40971;44.702;11.030;2023-02-12T14:21:51;34.33;;;15.40;;
55076;SDS011;40971;44.702;11.030;2023-02-12T14:31:51;27.83;;;14.32;;
55076;SDS011;40971;44.702;11.030;2023-02-12T14:41:52;33.47;;;16.77;;
55076;SDS011;40971;44.702;11.030;2023-02-12T15:02:15;34.80;;;15.68;;
55076;SDS011;40971;44.702;11.030;2023-02-12T15:12:30;39.33;;;18.15;;
55076;SDS011;40971;44.702;11.030;2023-02-12T15:22:40;29.95;;;14.48;;
55076;SDS011;40971;44.702;11.030;2023-02-12T15:32:41;30.45;;;13.63;;
55076;SDS011;40971;44.702;11.030;2023-02-12T15:53:05;31.45;;;14.77;;
55076;SDS011;40971;44.702;11.030;2023-02-12T16:03:17;31.10;;;14.90;;
55076;SDS011;40971;44.702;11.030;2023-02-12T16:13:29;33.25;;;14.82;;
55076;SDS011;40971;44.702;11.030;2023-02-12T16:23:31;32.05;;;14.70;;
55076;SDS011;40971;44.702;11.030;2023-02-12T16:33:34;33.00;;;15.93;;
55076;SDS011;40971;44.702;11.030;2023-02-12T16:43:45;35.67;;;16.00;;
55076;SDS011;40971;44.702;11.030;2023-02-12T16:53:51;30.10;;;14.30;;
55076;SDS011;40971;44.702;11.030;2023-02-12T17:03:54;29.50;;;13.93;;
55076;SDS011;40971;44.702;11.030;2023-02-12T17:13:56;21.83;;;12.38;;
55076;SDS011;40971;44.702;11.030;2023-02-12T17:23:57;28.40;;;13.47;;
55076;SDS011;40971;44.702;11.030;2023-02-12T17:33:57;35.63;;;15.05;;
55076;SDS011;40971;44.702;11.030;2023-02-12T17:43:58;34.22;;;15.85;;
55076;SDS011;40971;44.702;11.030;2023-02-12T17:53:58;31.40;;;15.18;;
55076;SDS011;40971;44.702;11.030;2023-02-12T18:03:59;27.45;;;13.30;;
55076;SDS011;40971;44.702;11.030;2023-02-12T18:13:59;22.27;;;11.35;;
55076;SDS011;40971;44.702;11.030;2023-02-12T18:24:01;24.75;;;13.65;;
55076;SDS011;40971;44.702;11.030;2023-02-12T18:34:05;28.17;;;12.80;;
55076;SDS011;40971;44.702;11.030;2023-02-12T18:44:06;27.20;;;12.95;;
55076;SDS011;40971;44.702;11.030;2023-02-12T18:54:10;25.98;;;12.25;;
55076;SDS011;40971;44.702;11.030;2023-02-12T19:04:12;28.67;;;13.38;;
55076;SDS011;40971;44.702;11.030;2023-02-12T19:14:15;22.10;;;11.15;;
55076;SDS011;40971;44.702;11.030;2023-02-12T19:24:17;26.90;;;11.02;;
55076;SDS011;40971;44.702;11.030;2023-02-12T19:34:19;21.03;;;10.77;;
55076;SDS011;40971;44.702;11.030;2023-02-12T19:44:22;18.30;;;10.27;;
55076;SDS011;40971;44.702;11.030;2023-02-12T19:54:23;16.55;;;9.02;;
55076;SDS011;40971;44.702;11.030;2023-02-12T20:14:24;15.90;;;7.15;;
55076;SDS011;40971;44.702;11.030;2023-02-12T20:24:26;20.03;;;6.93;;
55076;SDS011;40971;44.702;11.030;2023-02-12T20:34:28;15.63;;;7.85;;
55076;SDS011;40971;44.702;11.030;2023-02-12T20:44:29;14.38;;;7.63;;
55076;SDS011;40971;44.702;11.030;2023-02-12T20:54:30;19.95;;;7.20;;
55076;SDS011;40971;44.702;11.030;2023-02-12T21:04:30;17.17;;;7.40;;
55076;SDS011;40971;44.702;11.030;2023-02-12T21:14:31;14.98;;;8.48;;
55076;SDS011;40971;44.702;11.030;2023-02-12T21:24:31;13.88;;;7.38;;
55076;SDS011;40971;44.702;11.030;2023-02-12T21:34:33;18.45;;;8.30;;
55076;SDS011;40971;44.702;11.030;2023-02-12T21:44:33;8.77;;;6.87;;
55076;SDS011;40971;44.702;11.030;2023-02-12T21:54:34;19.20;;;7.40;;
55076;SDS011;40971;44.702;11.030;2023-02-12T22:04:35;12.70;;;7.13;;
55076;SDS011;40971;44.702;11.030;2023-02-12T22:14:35;12.45;;;6.93;;
55076;SDS011;40971;44.702;11.030;2023-02-12T22:24:36;18.25;;;6.78;;
55076;SDS011;40971;44.702;11.030;2023-02-12T22:34:36;11.52;;;7.05;;
55076;SDS011;40971;44.702;11.030;2023-02-12T22:44:37;8.77;;;6.68;;
55076;SDS011;40971;44.702;11.030;2023-02-12T22:54:38;14.10;;;7.10;;
55076;SDS011;40971;44.702;11.030;2023-02-12T23:04:38;8.93;;;6.83;;
55076;SDS011;40971;44.702;11.030;2023-02-12T23:14:39;13.02;;;7.22;;
55076;SDS011;40971;44.702;11.030;2023-02-12T23:24:39;11.85;;;6.57;;
55076;SDS011;40971;44.702;11.030;2023-02-12T23:34:39;8.88;;;7.53;;
55076;SDS011;40971;44.702;11.030;2023-02-12T23:44:41;12.55;;;5.20;;
55076;SDS011;40971;44.702;11.030;2023-02-12T23:54:41;10.63;;;6.97;;
